»·PEaware :: ASA1426 KSEA-KLAS

ASA1426 :: KSEA-KLAS

FLIGHT INFORMATION

Flight Status: Arrived
Operator:
Alaska Airlines
More flights by this operator :: More flights under this callsign
Pilot: James H. (174)
Aircraft: BOEING 737-900
(B739)
More flights by this aircraft type
Origin: KSEA Seattle-Tacoma Intl
United States
Destination: KLAS McCarran Intl
United States
More flights between these airports :: More routes between these airports
Route: +SUMMA2 LKV RYANN J92 BTY SUNST4
File this flight plan on PilotEdge
Remarks: PBN / A1B1C1D1L1O1S1 NAV / RNVD1E2A1 DOF / 201122 REG / N477AS EET / KZOA0058 KZLA0131 RVR / 200 OPR / ASA PER / D
Altitude:
(Current/Filed)
37,000ft
Speed:
(Current/Filed)
450kts
Departed: 21-Nov-20 05:37 PM
Arrived: 21-Nov-20 07:34 PM
Distance/Time
Traveled:
753nm/1:57
Distance/Time
To Go:
Arrived

Flight Plot

Page will automatically refresh every two minutes.

Flight plan parsing failed; only flown route is shown


Map Options




Map Legend


Flown Route
Filed Route
Departure Airport
Arrival Airport
Navaid (VOR, NDB)
Fix

Horizontal Profiles

Position Reports

Time Latitude Longitude Heading Altitude Ground
Speed
21-Nov-20 17:13 47.449309 -122.304309 129 441ft 0kts
21-Nov-20 17:14 47.449309 -122.304309 129 441ft 0kts
21-Nov-20 17:15 47.449309 -122.304309 129 441ft 0kts
21-Nov-20 17:16 47.449309 -122.304309 129 441ft 0kts
21-Nov-20 17:17 47.449309 -122.304309 129 441ft 0kts
21-Nov-20 17:18 47.449309 -122.304309 129 441ft 0kts
21-Nov-20 17:19 47.449309 -122.304309 129 441ft 0kts
21-Nov-20 17:20 47.449309 -122.304309 129 441ft 0kts
21-Nov-20 17:21 47.449309 -122.304309 129 441ft 0kts
21-Nov-20 17:22 47.449309 -122.304309 129 441ft 0kts
21-Nov-20 17:23 47.449492 -122.304616 148 441ft 2kts
21-Nov-20 17:24 47.449971 -122.304412 224 441ft 0kts
21-Nov-20 17:25 47.449971 -122.304412 224 441ft 0kts
21-Nov-20 17:26 47.449971 -122.304412 224 441ft 0kts
21-Nov-20 17:27 47.449499 -122.305073 213 441ft 6kts
21-Nov-20 17:28 47.448427 -122.305399 180 441ft 2kts
21-Nov-20 17:29 47.447880 -122.305426 195 441ft 3kts
21-Nov-20 17:30 47.446113 -122.306318 179 441ft 7kts
21-Nov-20 17:31 47.444125 -122.306328 180 441ft 6kts
21-Nov-20 17:32 47.441137 -122.306365 180 441ft 12kts
21-Nov-20 17:33 47.438006 -122.306395 180 441ft 11kts
21-Nov-20 17:34 47.434478 -122.305621 180 441ft 12kts
21-Nov-20 17:35 47.431566 -122.306509 235 441ft 10kts
21-Nov-20 17:36 47.438369 -122.308000 0 441ft 105kts
21-Nov-20 17:37 47.482060 -122.308377 357 2251ft 175kts
21-Nov-20 17:38 47.540956 -122.309249 0 4841ft 240kts
21-Nov-20 17:39 47.610300 -122.283947 52 7871ft 280kts
21-Nov-20 17:40 47.614226 -122.169099 104 10896ft 307kts
21-Nov-20 17:41 47.591556 -122.029939 105 12009ft 390kts
21-Nov-20 17:42 47.539268 -121.891525 152 13574ft 398kts
21-Nov-20 17:43 47.431630 -121.878872 188 16212ft 401kts
21-Nov-20 17:44 47.318095 -121.894189 188 18560ft 417kts
21-Nov-20 17:45 47.200757 -121.910053 189 20655ft 430kts
21-Nov-20 17:46 47.079520 -121.926520 189 22420ft 442kts
21-Nov-20 17:47 46.955914 -121.943176 189 23947ft 452kts
21-Nov-20 17:48 46.829136 -121.960227 189 25263ft 460kts
21-Nov-20 17:50 46.700456 -121.977350 189 26390ft 468kts
21-Nov-20 17:51 46.568902 -121.969307 171 27539ft 482kts
21-Nov-20 17:52 46.438963 -121.919926 169 28859ft 480kts
21-Nov-20 17:53 46.310364 -121.870622 169 30079ft 477kts
21-Nov-20 17:54 46.182158 -121.821398 169 31173ft 475kts
21-Nov-20 17:55 46.054647 -121.772912 169 32190ft 472kts
21-Nov-20 17:56 45.927864 -121.725015 169 33046ft 470kts
21-Nov-20 17:57 45.801489 -121.677504 170 33859ft 468kts
21-Nov-20 17:58 45.675484 -121.630358 170 34554ft 468kts
21-Nov-20 17:59 45.549667 -121.583502 170 35189ft 467kts
21-Nov-20 18:00 45.424182 -121.536985 170 35782ft 466kts
21-Nov-20 18:01 45.298586 -121.490641 169 36305ft 466kts
21-Nov-20 18:02 45.173093 -121.444546 170 36850ft 464kts
21-Nov-20 18:03 45.048024 -121.398815 169 37308ft 464kts
21-Nov-20 18:04 44.922679 -121.353191 169 37449ft 466kts
21-Nov-20 18:04 44.817970 -121.315236 169 37444ft 464kts
21-Nov-20 18:06 44.671934 -121.262539 169 37436ft 464kts
21-Nov-20 18:07 44.546648 -121.217547 169 37430ft 465kts
21-Nov-20 18:07 44.442292 -121.180224 169 37424ft 464kts
21-Nov-20 18:09 44.296316 -121.128243 169 37412ft 464kts
21-Nov-20 18:09 44.191987 -121.091256 169 37412ft 464kts
21-Nov-20 18:11 44.045723 -121.039628 169 37430ft 464kts
21-Nov-20 18:11 43.941248 -121.002912 169 37435ft 462kts
21-Nov-20 18:12 43.816764 -120.959337 169 37429ft 462kts
21-Nov-20 18:13 43.691776 -120.915774 169 37428ft 462kts
21-Nov-20 18:14 43.567180 -120.872532 169 37429ft 462kts
21-Nov-20 18:15 43.442308 -120.829380 169 37427ft 462kts
21-Nov-20 18:16 43.317861 -120.786557 169 37435ft 461kts
21-Nov-20 18:17 43.193258 -120.743861 169 37431ft 461kts
21-Nov-20 18:18 43.068752 -120.701376 169 37426ft 461kts
21-Nov-20 18:19 42.944052 -120.659002 169 37420ft 460kts
21-Nov-20 18:20 42.819744 -120.616935 169 37415ft 460kts
21-Nov-20 18:21 42.695722 -120.575004 170 37410ft 459kts
21-Nov-20 18:22 42.571725 -120.533477 170 37404ft 459kts
21-Nov-20 18:23 42.447756 -120.490436 167 37401ft 460kts
21-Nov-20 18:24 42.324952 -120.441141 167 37400ft 460kts
21-Nov-20 18:25 42.202114 -120.392782 167 37400ft 459kts
21-Nov-20 18:26 42.079514 -120.344468 167 37399ft 459kts
21-Nov-20 18:27 41.956942 -120.296493 168 37397ft 459kts
21-Nov-20 18:28 41.834249 -120.248749 168 37390ft 459kts
21-Nov-20 18:29 41.711307 -120.201115 168 37384ft 459kts
21-Nov-20 18:30 41.588576 -120.153753 168 37379ft 459kts
21-Nov-20 18:31 41.465866 -120.106588 168 37377ft 458kts
21-Nov-20 18:32 41.343502 -120.059741 169 37379ft 458kts
21-Nov-20 18:33 41.221034 -120.013037 169 37385ft 457kts
21-Nov-20 18:34 41.098291 -119.966410 170 37390ft 460kts
21-Nov-20 18:35 40.975596 -119.919983 170 37397ft 459kts
21-Nov-20 18:36 40.852510 -119.873588 171 37403ft 458kts
21-Nov-20 18:37 40.729881 -119.827542 171 37408ft 457kts
21-Nov-20 18:38 40.607749 -119.781859 172 37410ft 456kts
21-Nov-20 18:39 40.485280 -119.736223 172 37419ft 456kts
21-Nov-20 18:40 40.363421 -119.690986 172 37421ft 455kts
21-Nov-20 18:41 40.241407 -119.645861 172 37424ft 455kts
21-Nov-20 18:42 40.119547 -119.600599 170 37421ft 458kts
21-Nov-20 18:43 40.005451 -119.518306 153 37422ft 477kts
21-Nov-20 18:44 39.895854 -119.419229 153 37422ft 479kts
21-Nov-20 18:45 39.786573 -119.320880 154 37423ft 479kts
21-Nov-20 18:46 39.676553 -119.221574 154 37422ft 481kts
21-Nov-20 18:47 39.566200 -119.122407 154 37425ft 483kts
21-Nov-20 18:48 39.455833 -119.024159 154 37428ft 483kts
21-Nov-20 18:49 39.344626 -118.925396 155 37428ft 484kts
21-Nov-20 18:50 39.233436 -118.827671 155 37428ft 484kts
21-Nov-20 18:51 39.121590 -118.729839 155 37428ft 485kts
21-Nov-20 18:52 39.009931 -118.632575 155 37429ft 485kts
21-Nov-20 18:53 38.898326 -118.535762 156 37425ft 485kts
21-Nov-20 18:54 38.786353 -118.438174 156 37425ft 486kts
21-Nov-20 18:55 38.674308 -118.341591 156 37424ft 485kts
21-Nov-20 18:56 38.561869 -118.245058 157 37425ft 487kts
21-Nov-20 18:57 38.449366 -118.149003 157 37418ft 487kts
21-Nov-20 18:58 38.336384 -118.052888 157 37402ft 490kts
21-Nov-20 18:59 38.223274 -117.956125 157 37380ft 488kts
21-Nov-20 19:00 38.109716 -117.860045 157 37367ft 489kts
21-Nov-20 19:01 37.996091 -117.764272 157 37353ft 491kts
21-Nov-20 19:02 37.883406 -117.666900 156 37344ft 494kts
21-Nov-20 19:03 37.769877 -117.569217 156 36770ft 494kts
21-Nov-20 19:04 37.656274 -117.471046 156 35770ft 494kts
21-Nov-20 19:05 37.542556 -117.373768 156 35334ft 494kts
21-Nov-20 19:06 37.428105 -117.276326 156 35328ft 497kts
21-Nov-20 19:07 37.313446 -117.179153 156 35312ft 498kts
21-Nov-20 19:08 37.197993 -117.081658 156 35301ft 500kts
21-Nov-20 19:09 37.082898 -116.984307 156 35297ft 500kts
21-Nov-20 19:10 36.970892 -116.889825 156 35283ft 500kts
21-Nov-20 19:11 36.856539 -116.794276 156 35269ft 493kts
21-Nov-20 19:12 36.750589 -116.679458 137 32455ft 520kts
21-Nov-20 19:13 36.656334 -116.542070 136 28690ft 520kts
21-Nov-20 19:14 36.562897 -116.409123 136 25666ft 497kts
21-Nov-20 19:15 36.473742 -116.283409 135 22855ft 473kts
21-Nov-20 19:16 36.388952 -116.163726 134 20140ft 450kts
21-Nov-20 19:17 36.308077 -116.050272 133 17448ft 430kts
21-Nov-20 19:18 36.231621 -115.943587 133 16173ft 385kts
21-Nov-20 19:19 36.180039 -115.837880 111 15421ft 345kts
21-Nov-20 19:20 36.146183 -115.730702 112 14389ft 328kts
21-Nov-20 19:21 36.112855 -115.627407 111 13396ft 325kts
21-Nov-20 19:22 36.079598 -115.524357 112 12403ft 319kts
21-Nov-20 19:23 36.046686 -115.423296 111 11443ft 312kts
21-Nov-20 19:24 36.026978 -115.324512 92 10432ft 286kts
21-Nov-20 19:25 36.020492 -115.229279 94 9312ft 270kts
21-Nov-20 19:26 36.014236 -115.138637 93 8492ft 263kts
21-Nov-20 19:27 36.008673 -115.053127 92 8000ft 236kts
21-Nov-20 19:28 36.004752 -114.978733 84 7600ft 202kts
21-Nov-20 19:29 36.051598 -114.954460 355 5705ft 190kts
21-Nov-20 19:30 36.078579 -114.995021 264 3931ft 171kts
21-Nov-20 19:31 36.075847 -115.048111 271 3444ft 156kts
21-Nov-20 19:32 36.075992 -115.102281 269 2592ft 151kts
21-Nov-20 19:33 36.076392 -115.143754 268 2189ft 29kts
21-Nov-20 19:34 36.077688 -115.145911 91 2189ft 9kts
21-Nov-20 19:35 36.077525 -115.142877 91 2189ft 8kts
21-Nov-20 19:36 36.078005 -115.141585 2 2189ft 3kts
21-Nov-20 19:37 36.079810 -115.141614 0 2189ft 10kts
21-Nov-20 19:38 36.081053 -115.140396 134 2189ft 4kts
21-Nov-20 19:39 36.081003 -115.140333 134 2189ft 0kts
21-Nov-20 19:40 36.081003 -115.140333 134 2189ft 0kts
21-Nov-20 19:41 36.081003 -115.140333 134 2189ft 0kts
21-Nov-20 19:42 36.081003 -115.140333 134 2189ft 0kts
21-Nov-20 19:43 36.081003 -115.140333 134 2189ft 0kts
21-Nov-20 19:45 36.081003 -115.140333 134 2189ft 0kts
21-Nov-20 19:46 36.081003 -115.140333 134 2189ft 0kts

Navigation Log

Ident Type
Flight plan parsing failed, navigation log unavailable